Time;durP1;ratioP1;P1;durP2;ratioP2;P2;SDS_P1;SDS_P2;PMS_P1;PMS_P2;Temp;Humidity;BMP_temperature;BMP_pressure;BME280_temperature;BME280_humidity;BME280_pressure;Samples;Min_cycle;Max_cycle;Signal;HPM_P1;HPM_P2
2021/11/08 00:00:28;;;;;;;11.63;8.27;;;;;;;4.91;94.96;95927.56;5072431;28;20189;-77
2021/11/08 00:02:55;;;;;;;15.77;7.90;;;;;;;4.94;95.22;95922.19;5055850;28;20189;-78
2021/11/08 00:05:21;;;;;;;15.57;8.50;;;;;;;4.92;94.95;95918.91;5062459;28;20192;-78
2021/11/08 00:07:50;;;;;;;12.80;8.17;;;;;;;4.92;95.19;95921.47;5078917;28;20323;-78
2021/11/08 00:10:16;;;;;;;15.77;8.40;;;;;;;4.92;95.09;95924.03;5072356;28;20703;-77
2021/11/08 00:12:41;;;;;;;16.03;8.47;;;;;;;4.86;95.07;95920.16;5055884;28;20169;-78
2021/11/08 00:15:10;;;;;;;15.00;8.57;;;;;;;4.89;95.31;95924.25;5081384;28;20932;-77
2021/11/08 00:21:01;;;;;;;13.37;7.17;;;;;;;4.81;95.16;95927.34;5089567;28;20214;-79
2021/11/08 00:23:09;;;;;;;16.13;6.97;;;;;;;4.80;94.10;95934.25;5067677;28;20185;-79
2021/11/08 00:25:35;;;;;;;17.27;7.43;;;;;;;4.77;93.75;95929.31;5071497;28;20220;-78
2021/11/08 00:28:01;;;;;;;15.07;6.80;;;;;;;4.77;94.18;95928.47;5079124;28;20758;-77
2021/11/08 00:30:30;;;;;;;19.77;7.97;;;;;;;4.75;94.32;95923.44;5083754;28;20197;-78
2021/11/08 00:32:56;;;;;;;15.80;7.67;;;;;;;4.72;93.98;95922.81;5065328;28;20181;-77
2021/11/08 00:35:22;;;;;;;11.73;7.03;;;;;;;4.75;94.54;95923.44;5070801;28;20192;-78
2021/11/08 00:37:47;;;;;;;16.03;7.47;;;;;;;4.69;93.98;95923.03;5055122;28;20679;-77
2021/11/08 00:40:12;;;;;;;12.97;7.07;;;;;;;4.65;94.00;95921.56;5071786;28;20207;-77
2021/11/08 00:42:38;;;;;;;18.80;7.50;;;;;;;4.59;94.32;95917.66;5076737;28;20570;-78
2021/11/08 00:45:04;;;;;;;10.97;7.30;;;;;;;4.50;94.23;95919.09;5082872;28;20206;-77
2021/11/08 00:47:29;;;;;;;14.77;7.90;;;;;;;4.47;94.64;95910.75;5091626;28;20173;-78
2021/11/08 00:49:56;;;;;;;16.33;7.47;;;;;;;4.41;94.28;95918.88;5075005;28;20200;-78
2021/11/08 00:52:21;;;;;;;11.53;6.47;;;;;;;4.39;94.60;95923.31;5075376;28;20267;-78
2021/11/08 00:54:47;;;;;;;14.23;7.13;;;;;;;4.31;94.21;95923.81;5081097;28;20264;-79
2021/11/08 00:57:13;;;;;;;13.67;6.47;;;;;;;4.28;94.59;95921.44;5088709;28;20192;-79
2021/11/08 00:59:38;;;;;;;15.27;6.20;;;;;;;4.18;94.35;95926.34;5091689;28;20201;-78
2021/11/08 01:02:04;;;;;;;15.07;6.70;;;;;;;4.14;94.55;95924.88;5091805;28;20225;-78
2021/11/08 01:04:29;;;;;;;14.77;6.80;;;;;;;4.11;94.78;95932.81;5085155;28;20173;-78
2021/11/08 01:06:59;;;;;;;9.23;6.83;;;;;;;4.07;94.83;95936.50;5079949;28;20197;-78
2021/11/08 01:09:27;;;;;;;10.13;6.23;;;;;;;4.04;94.68;95941.81;5055209;28;20195;-78
2021/11/08 01:11:52;;;;;;;16.30;6.87;;;;;;;3.97;94.71;95945.72;5071624;28;20173;-78
2021/11/08 01:14:17;;;;;;;13.53;6.73;;;;;;;3.95;95.12;95952.69;5072700;28;20249;-77
2021/11/08 01:16:45;;;;;;;11.13;6.63;;;;;;;3.88;94.96;95952.25;5069696;28;20230;-79
2021/11/08 01:19:10;;;;;;;15.67;6.57;;;;;;;3.84;95.01;95952.56;5071119;28;20173;-78
2021/11/08 01:21:36;;;;;;;13.23;5.67;;;;;;;3.79;95.22;95952.00;5071313;28;20226;-78
2021/11/08 01:24:02;;;;;;;15.10;6.17;;;;;;;3.74;95.21;95941.22;5070682;28;20200;-78
2021/11/08 01:26:28;;;;;;;16.37;6.77;;;;;;;3.67;95.42;95946.72;5060337;28;20640;-78
2021/11/08 01:28:53;;;;;;;15.53;6.60;;;;;;;3.63;95.31;95942.72;5076605;28;20173;-79
2021/11/08 01:31:19;;;;;;;11.17;6.47;;;;;;;3.61;95.78;95944.53;5070247;28;20280;-80
2021/11/08 01:33:49;;;;;;;16.10;7.33;;;;;;;3.57;96.01;95947.41;5080013;28;20222;-78
2021/11/08 01:36:17;;;;;;;18.63;8.53;;;;;;;3.51;96.21;95942.63;5086098;28;20675;-78
2021/11/08 01:38:48;;;;;;;16.27;8.20;;;;;;;3.49;96.42;95944.47;5070967;28;20691;-78
2021/11/08 01:41:17;;;;;;;17.63;8.07;;;;;;;3.49;96.61;95947.06;5071249;28;20197;-78
2021/11/08 01:43:42;;;;;;;14.93;7.30;;;;;;;3.47;96.68;95944.59;5070703;28;20188;-78
2021/11/08 01:46:09;;;;;;;18.87;8.00;;;;;;;3.46;96.80;95940.38;5072165;28;20185;-78
2021/11/08 01:48:34;;;;;;;20.07;7.27;;;;;;;3.43;96.53;95935.41;5076236;28;20579;-79
2021/11/08 01:51:01;;;;;;;19.03;7.00;;;;;;;3.37;96.33;95936.63;5071115;28;20211;-79
2021/11/08 01:53:26;;;;;;;15.70;6.80;;;;;;;3.31;96.60;95947.25;5070738;28;20251;-79
2021/11/08 01:55:52;;;;;;;19.90;6.93;;;;;;;3.32;96.70;95932.69;5071573;28;20252;-79
2021/11/08 01:58:24;;;;;;;19.00;6.17;;;;;;;3.28;96.49;95937.19;5080246;28;20201;-79
2021/11/08 02:00:50;;;;;;;14.37;6.10;;;;;;;3.21;96.74;95941.03;5084660;28;20203;-78
2021/11/08 02:03:17;;;;;;;14.27;5.90;;;;;;;3.18;96.30;95941.25;5090665;28;20175;-78
2021/11/08 02:05:43;;;;;;;10.63;5.47;;;;;;;3.12;96.29;95945.00;5091346;28;20176;-78
2021/11/08 02:08:09;;;;;;;16.53;5.97;;;;;;;3.08;96.65;95946.06;5082882;28;20174;-78
2021/11/08 02:10:34;;;;;;;13.97;5.83;;;;;;;3.07;96.24;95939.28;5070690;28;20204;-79
2021/11/08 02:13:00;;;;;;;15.90;6.23;;;;;;;3.08;96.46;95937.56;5070764;28;20177;-79
2021/11/08 02:15:25;;;;;;;15.27;5.00;;;;;;;3.00;96.12;95938.00;5053349;28;20233;-78
2021/11/08 02:17:51;;;;;;;19.23;5.93;;;;;;;2.95;95.86;95929.78;5069900;28;20244;-78
2021/11/08 02:20:25;;;;;;;14.03;5.17;;;;;;;2.92;96.25;95929.97;5079904;28;20284;-78
2021/11/08 02:22:51;;;;;;;13.10;5.30;;;;;;;2.89;95.93;95931.88;5070531;28;20183;-79
2021/11/08 02:25:18;;;;;;;14.40;5.17;;;;;;;2.85;96.20;95938.94;5053184;28;20191;-78
2021/11/08 02:27:44;;;;;;;14.47;6.33;;;;;;;2.83;95.76;95936.47;5053809;28;20186;-79
2021/11/08 02:30:11;;;;;;;15.57;5.90;;;;;;;2.79;96.13;95940.13;5055568;28;20223;-79
2021/11/08 02:32:37;;;;;;;15.37;4.90;;;;;;;2.75;96.40;95935.28;5077033;28;20182;-78
2021/11/08 02:35:05;;;;;;;12.67;5.23;;;;;;;2.73;95.98;95939.66;5053179;28;20637;-79
2021/11/08 02:37:32;;;;;;;15.47;5.30;;;;;;;2.66;95.82;95939.22;5070712;28;20288;-79
2021/11/08 02:39:57;;;;;;;13.33;5.90;;;;;;;2.66;95.70;95941.78;5071414;28;20227;-79
2021/11/08 02:42:22;;;;;;;16.93;5.60;;;;;;;2.65;95.84;95935.00;5080509;28;20636;-78
2021/11/08 02:44:48;;;;;;;9.23;4.30;;;;;;;2.65;95.85;95931.59;5076314;28;20252;-78
2021/11/08 02:47:14;;;;;;;10.17;4.77;;;;;;;2.61;95.35;95930.94;5095692;28;20168;-79
2021/11/08 02:49:43;;;;;;;12.20;5.47;;;;;;;2.58;95.43;95938.00;5077402;28;20205;-78
2021/11/08 02:52:10;;;;;;;11.07;4.80;;;;;;;2.54;95.14;95937.34;5066056;28;20659;-78
2021/11/08 02:54:39;;;;;;;13.40;5.47;;;;;;;2.52;95.50;95940.00;5073618;28;20223;-79
2021/11/08 02:57:08;;;;;;;17.87;4.93;;;;;;;2.47;95.23;95942.03;5073745;28;20256;-78
2021/11/08 02:59:36;;;;;;;9.27;4.17;;;;;;;2.43;94.50;95942.28;5073750;28;20197;-78
2021/11/08 03:02:03;;;;;;;19.33;4.63;;;;;;;2.34;94.35;95938.50;5059620;28;20204;-78
2021/11/08 03:04:33;;;;;;;10.30;4.20;;;;;;;2.29;94.21;95935.38;5081189;28;20192;-78
2021/11/08 03:06:58;;;;;;;12.13;4.40;;;;;;;2.21;94.29;95945.25;5073813;28;20190;-79
2021/11/08 03:09:31;;;;;;;12.70;4.10;;;;;;;2.16;94.51;95931.88;5073314;28;20686;-78
2021/11/08 03:11:57;;;;;;;10.40;4.20;;;;;;;2.10;94.69;95939.88;5060856;28;20184;-78
2021/11/08 03:14:26;;;;;;;11.10;3.73;;;;;;;2.03;94.51;95941.16;5068005;28;20178;-79
2021/11/08 03:22:16;;;;;;;9.90;4.20;;;;;;;1.91;94.52;95947.78;5056200;28;20185;-79
2021/11/08 03:24:50;;;;;;;11.97;4.60;;;;;;;1.87;94.91;95947.16;5054931;28;20198;-79
2021/11/08 03:27:28;;;;;;;11.30;4.47;;;;;;;1.80;94.57;95947.56;5056554;28;20186;-78
2021/11/08 03:29:53;;;;;;;13.93;4.47;;;;;;;1.76;94.46;95946.06;5056416;28;20271;-79
2021/11/08 03:32:19;;;;;;;11.80;4.83;;;;;;;1.70;94.63;95942.94;5054162;28;20272;-78
2021/11/08 03:34:56;;;;;;;9.43;4.60;;;;;;;1.67;94.60;95943.09;5049645;28;20193;-78
2021/11/08 03:37:21;;;;;;;8.53;3.73;;;;;;;1.62;94.37;95947.66;5053230;28;20769;-78
2021/11/08 03:39:49;;;;;;;9.90;3.77;;;;;;;1.60;94.86;95952.03;5055497;28;20205;-78
2021/11/08 03:42:15;;;;;;;12.03;4.50;;;;;;;1.57;94.98;95951.38;5055800;28;20192;-79
2021/11/08 03:44:40;;;;;;;13.53;3.73;;;;;;;1.56;94.76;95958.22;5052987;28;20268;-78
2021/11/08 03:47:05;;;;;;;9.13;4.30;;;;;;;1.53;94.35;95960.13;5072264;28;20180;-79
2021/11/08 03:49:31;;;;;;;13.77;4.33;;;;;;;1.52;94.70;95958.47;5072152;28;20216;-79
2021/11/08 03:51:56;;;;;;;9.23;4.30;;;;;;;1.50;94.45;95967.94;5055066;28;20181;-79
2021/11/08 03:54:22;;;;;;;9.80;4.43;;;;;;;1.50;94.45;95960.28;5050975;28;20751;-78
2021/11/08 03:56:47;;;;;;;13.37;4.33;;;;;;;1.45;94.45;95962.28;5054205;28;20182;-78
2021/11/08 03:59:12;;;;;;;14.13;4.73;;;;;;;1.45;94.60;95962.28;5067774;28;20197;-78
2021/11/08 04:01:38;;;;;;;11.37;4.53;;;;;;;1.42;94.23;95969.22;5072893;28;20181;-78
2021/11/08 04:04:05;;;;;;;12.27;3.90;;;;;;;1.39;94.90;95964.25;5073427;28;20261;-78
2021/11/08 04:06:31;;;;;;;10.70;3.70;;;;;;;1.36;94.20;95961.84;5082148;28;20170;-79
2021/11/08 04:08:58;;;;;;;13.20;3.90;;;;;;;1.33;94.56;95976.56;5087318;28;20214;-78
2021/11/08 04:11:24;;;;;;;9.67;4.13;;;;;;;1.31;94.84;95970.66;5076066;28;20220;-77
2021/11/08 04:13:50;;;;;;;9.40;3.63;;;;;;;1.30;94.66;95977.53;5075224;28;20644;-77
2021/11/08 04:16:17;;;;;;;8.27;3.73;;;;;;;1.27;94.63;95977.69;5084987;28;20174;-78
2021/11/08 04:18:49;;;;;;;15.77;3.97;;;;;;;1.27;94.54;95966.63;5084388;28;20618;-78
2021/11/08 04:21:15;;;;;;;12.67;4.27;;;;;;;1.24;94.71;95975.31;5075994;28;20421;-77
2021/11/08 04:23:40;;;;;;;8.20;4.10;;;;;;;1.21;94.94;95980.56;5091734;28;20195;-77
2021/11/08 04:26:06;;;;;;;14.10;5.10;;;;;;;1.18;95.15;95977.34;5089770;28;20589;-78
2021/11/08 04:28:32;;;;;;;15.13;4.97;;;;;;;1.18;94.81;95975.63;5085221;28;20651;-77
2021/11/08 04:30:57;;;;;;;11.13;3.90;;;;;;;1.16;95.02;95981.72;5092369;28;20213;-78
2021/11/08 04:36:08;;;;;;;12.23;3.60;;;;;;;1.12;95.11;95981.03;5092387;28;20180;-79
2021/11/08 04:38:50;;;;;;;11.23;4.00;;;;;;;1.11;95.32;95987.06;5084211;28;20297;-78
2021/11/08 04:41:42;;;;;;;18.47;4.40;;;;;;;1.09;95.26;95979.47;5090749;28;20204;-79
2021/11/08 04:55:13;;;;;;;12.97;4.63;;;;;;;1.04;95.45;95973.78;5071272;28;20195;-77
2021/11/08 04:57:57;;;;;;;11.33;4.10;;;;;;;1.02;95.40;95970.47;5070585;28;20256;-78
2021/11/08 05:22:41;;;;;;;7.10;4.00;;;;;;;0.82;95.56;95996.25;5079455;28;20195;-78
2021/11/08 05:30:11;;;;;;;26.03;13.93;;;;;;;0.76;95.55;96007.59;5071919;28;20276;-78
2021/11/08 05:32:41;;;;;;;22.83;10.93;;;;;;;0.74;95.41;96011.97;5082374;28;20234;-78
2021/11/08 05:35:08;;;;;;;17.43;9.07;;;;;;;0.73;95.49;96004.38;5091595;28;20197;-79
2021/11/08 05:37:35;;;;;;;23.87;8.20;;;;;;;0.72;95.97;96003.56;5092069;28;20200;-79
2021/11/08 05:40:10;;;;;;;19.10;8.60;;;;;;;0.71;95.78;96007.00;5074791;28;20667;-78
2021/11/08 05:42:36;;;;;;;12.00;7.07;;;;;;;0.69;95.49;96010.53;5080472;28;20517;-77
2021/11/08 05:45:02;;;;;;;16.10;8.20;;;;;;;0.64;95.78;96010.78;5085045;28;20179;-78
2021/11/08 05:47:29;;;;;;;16.63;7.20;;;;;;;0.63;95.59;96008.31;5091604;28;20264;-78
2021/11/08 05:49:54;;;;;;;9.50;6.47;;;;;;;0.60;95.58;96019.47;5091890;28;20192;-78
2021/11/08 05:52:20;;;;;;;14.43;6.37;;;;;;;0.58;95.54;96008.50;5080965;28;20197;-79
2021/11/08 05:54:46;;;;;;;11.77;5.43;;;;;;;0.57;95.59;96006.84;5076519;28;20255;-78
2021/11/08 06:00:25;;;;;;;10.77;4.70;;;;;;;0.57;95.55;96014.53;5070558;28;20196;-79
2021/11/08 06:48:43;;;;;;;12.93;4.77;;;;;;;0.59;95.65;96019.56;5075204;28;20231;-78
2021/11/08 06:49:26;;;;;;;9.83;4.90;;;;;;;0.72;95.24;96038.50;5085480;28;20177;-79
2021/11/08 06:51:53;;;;;;;12.53;5.30;;;;;;;0.74;95.24;96040.09;5073528;28;20192;-79
2021/11/08 06:54:20;;;;;;;13.00;5.30;;;;;;;0.78;95.33;96040.75;5075999;28;20659;-79
2021/11/08 06:57:12;;;;;;;9.77;4.87;;;;;;;0.82;94.79;96047.38;5066053;28;20177;-79
2021/11/08 06:59:32;;;;;;;15.53;5.37;;;;;;;0.84;94.98;96048.13;5080552;28;20220;-82
2021/11/08 07:01:57;;;;;;;11.97;4.50;;;;;;;0.90;94.93;96049.56;5059261;28;20181;-79
2021/11/08 07:04:24;;;;;;;18.80;5.20;;;;;;;0.91;94.91;96053.75;5076019;28;20189;-79
2021/11/08 07:06:49;;;;;;;19.37;7.20;;;;;;;0.95;94.99;96048.41;5075675;28;20213;-81
2021/11/08 07:09:15;;;;;;;37.73;17.43;;;;;;;1.01;95.17;96054.94;5077273;28;20712;-80
2021/11/08 07:11:42;;;;;;;50.60;25.00;;;;;;;1.02;94.47;96059.97;5098177;28;20173;-80
2021/11/08 07:14:08;;;;;;;45.63;22.13;;;;;;;1.05;95.11;96061.56;5090566;28;20193;-80
2021/11/08 07:16:35;;;;;;;23.43;10.53;;;;;;;1.12;95.26;96070.56;5073319;28;20260;-81
2021/11/08 07:19:00;;;;;;;17.43;9.17;;;;;;;1.18;95.62;96072.84;5069705;28;20913;-81
2021/11/08 07:21:25;;;;;;;18.50;7.00;;;;;;;1.27;95.38;96077.47;5089241;28;20196;-80
2021/11/08 07:23:51;;;;;;;12.97;7.00;;;;;;;1.36;95.07;96078.75;5078109;28;20187;-79
2021/11/08 07:26:16;;;;;;;10.83;7.00;;;;;;;1.39;94.58;96084.53;5092052;28;20676;-80
2021/11/08 07:28:41;;;;;;;18.47;7.20;;;;;;;1.47;94.86;96088.41;5084172;28;20225;-80
2021/11/08 07:31:09;;;;;;;13.57;5.93;;;;;;;1.49;94.57;96092.53;5079051;28;20232;-80
2021/11/08 07:33:35;;;;;;;10.03;4.73;;;;;;;1.54;94.58;96088.03;5057043;28;20243;-82
2021/11/08 07:36:00;;;;;;;9.67;4.87;;;;;;;1.65;94.30;96087.47;5075067;28;20173;-80
2021/11/08 07:38:26;;;;;;;12.33;4.63;;;;;;;1.75;94.69;96082.69;5089869;28;20729;-80
2021/11/08 07:40:51;;;;;;;12.53;4.97;;;;;;;1.82;94.51;96092.53;5089391;28;20200;-80
2021/11/08 07:43:16;;;;;;;14.17;5.77;;;;;;;1.89;94.29;96091.31;5080490;28;20196;-80
2021/11/08 07:45:42;;;;;;;15.90;4.90;;;;;;;1.96;94.46;96090.06;5094882;28;20177;-80
2021/11/08 07:48:08;;;;;;;14.97;5.10;;;;;;;2.05;94.45;96095.63;5095233;28;20173;-81
2021/11/08 07:50:33;;;;;;;10.47;4.60;;;;;;;2.13;94.10;96099.41;5088132;28;20197;-80
2021/11/08 07:52:58;;;;;;;12.73;4.90;;;;;;;2.20;93.67;96100.72;5073524;28;20552;-81
2021/11/08 07:55:24;;;;;;;10.43;4.67;;;;;;;2.22;93.25;96090.41;5094028;28;20192;-81
2021/11/08 07:57:49;;;;;;;13.80;5.13;;;;;;;2.24;93.47;96083.44;5078080;28;20224;-80
2021/11/08 08:00:14;;;;;;;14.30;5.60;;;;;;;2.35;93.78;96093.09;5087813;28;20220;-80
2021/11/08 08:02:41;;;;;;;11.73;4.33;;;;;;;2.41;93.15;96097.91;5087934;28;20177;-80
2021/11/08 08:05:06;;;;;;;13.97;5.00;;;;;;;2.50;93.35;96087.16;5094383;28;20709;-80
2021/11/08 08:07:31;;;;;;;12.77;4.50;;;;;;;2.59;92.87;96091.75;5078155;28;20260;-80
2021/11/08 08:09:57;;;;;;;10.77;5.37;;;;;;;2.68;92.68;96092.97;5075417;28;20203;-81
2021/11/08 08:12:22;;;;;;;12.33;4.60;;;;;;;2.74;92.89;96090.91;5086134;28;20270;-79
2021/11/08 08:14:47;;;;;;;13.43;4.13;;;;;;;2.85;92.43;96090.28;5077206;28;20173;-79
2021/11/08 08:17:13;;;;;;;12.80;5.40;;;;;;;3.02;92.32;96086.75;5095301;28;20314;-79
2021/11/08 08:19:39;;;;;;;11.20;4.27;;;;;;;3.12;92.32;96091.25;5095000;28;20196;-81
2021/11/08 08:22:04;;;;;;;18.03;4.70;;;;;;;3.23;92.03;96097.50;5084579;28;20366;-81
2021/11/08 08:24:30;;;;;;;14.70;4.83;;;;;;;3.32;91.73;96097.78;5080725;28;20216;-80
2021/11/08 08:26:57;;;;;;;15.27;5.07;;;;;;;3.41;91.64;96092.13;5071410;28;20184;-78
2021/11/08 08:29:22;;;;;;;9.20;4.30;;;;;;;3.50;91.33;96090.75;5072490;28;20223;-81
2021/11/08 08:31:50;;;;;;;16.70;5.00;;;;;;;3.54;90.58;96099.13;5079661;28;20639;-82
2021/11/08 08:34:16;;;;;;;24.43;8.93;;;;;;;3.63;90.10;96101.13;5070916;28;20658;-81
2021/11/08 08:36:43;;;;;;;21.07;12.10;;;;;;;3.75;90.05;96097.81;5078536;28;20191;-81
2021/11/08 08:39:09;;;;;;;20.17;8.33;;;;;;;3.78;89.26;96095.06;5081508;28;20196;-81
2021/11/08 08:41:35;;;;;;;15.30;5.70;;;;;;;3.85;89.46;96100.66;5080706;28;20199;-79
2021/11/08 08:44:01;;;;;;;20.67;5.53;;;;;;;3.94;89.10;96108.63;5084954;28;20177;-79
2021/11/08 08:46:27;;;;;;;13.33;4.90;;;;;;;4.03;88.15;96107.22;5089542;28;20187;-79
2021/11/08 08:48:53;;;;;;;12.90;4.43;;;;;;;4.09;87.88;96104.28;5071618;28;20184;-78
2021/11/08 08:51:19;;;;;;;14.07;4.60;;;;;;;4.16;87.88;96103.00;5069590;28;20290;-79
2021/11/08 08:53:44;;;;;;;11.53;4.40;;;;;;;4.18;86.82;96108.03;5078100;28;20288;-79
2021/11/08 08:56:10;;;;;;;14.83;4.07;;;;;;;4.26;86.46;96104.06;5089984;28;20183;-79
2021/11/08 08:58:37;;;;;;;12.37;3.77;;;;;;;4.36;85.11;96106.91;5077552;28;20204;-79
2021/11/08 09:01:02;;;;;;;11.73;3.87;;;;;;;4.39;85.18;96098.97;5068513;28;20631;-79
2021/11/08 09:03:28;;;;;;;14.43;4.67;;;;;;;4.48;85.04;96108.69;5087449;28;20204;-80
2021/11/08 09:05:53;;;;;;;12.93;4.37;;;;;;;4.53;84.64;96104.09;5064961;28;20177;-79
2021/11/08 09:08:19;;;;;;;16.53;4.37;;;;;;;4.62;84.74;96100.09;5064222;28;20193;-80
2021/11/08 09:10:44;;;;;;;17.00;4.43;;;;;;;4.63;84.97;96099.19;5054752;28;20722;-79
2021/11/08 09:13:10;;;;;;;19.60;5.10;;;;;;;4.73;85.57;96104.56;5071529;28;20610;-79
2021/11/08 09:15:36;;;;;;;14.77;5.60;;;;;;;4.78;85.04;96100.78;5071125;28;20234;-80
2021/11/08 09:18:03;;;;;;;18.07;6.00;;;;;;;4.71;84.94;96101.28;5084524;28;20318;-80
2021/11/08 09:20:29;;;;;;;13.87;6.00;;;;;;;4.61;84.92;96108.75;5055224;28;20747;-79
2021/11/08 09:22:55;;;;;;;15.63;4.17;;;;;;;4.57;84.98;96112.44;5076932;28;20199;-79
2021/11/08 09:25:22;;;;;;;14.33;4.00;;;;;;;4.54;84.06;96116.03;5086407;28;20185;-79
2021/11/08 09:27:50;;;;;;;10.20;4.37;;;;;;;4.53;84.53;96114.38;5091437;28;20177;-80
2021/11/08 09:30:18;;;;;;;22.93;9.10;;;;;;;4.46;85.20;96117.44;5091283;28;20260;-80
2021/11/08 09:32:44;;;;;;;22.63;10.23;;;;;;;4.49;85.37;96127.50;5091444;28;20177;-79
2021/11/08 09:35:10;;;;;;;21.47;5.77;;;;;;;4.57;85.48;96121.88;5073578;28;20690;-79
2021/11/08 09:37:42;;;;;;;16.07;5.67;;;;;;;4.56;85.55;96121.06;5089947;28;20200;-80
2021/11/08 09:40:08;;;;;;;16.97;4.90;;;;;;;4.52;85.65;96128.16;5075437;28;20196;-80
2021/11/08 09:42:34;;;;;;;18.53;5.20;;;;;;;4.53;85.77;96126.41;5089442;28;20685;-78
2021/11/08 09:45:00;;;;;;;22.47;5.90;;;;;;;4.52;85.71;96132.47;5090398;28;20194;-79
2021/11/08 09:47:27;;;;;;;12.97;5.33;;;;;;;4.48;86.11;96138.72;5091260;28;20267;-80
2021/11/08 09:49:55;;;;;;;18.50;5.77;;;;;;;4.41;86.49;96129.75;5078226;28;20203;-80
2021/11/08 09:52:21;;;;;;;20.10;6.13;;;;;;;4.48;86.17;96136.97;5085870;28;20249;-78
2021/11/08 09:54:47;;;;;;;13.90;4.90;;;;;;;4.40;86.49;96138.38;5079666;28;20180;-79
2021/11/08 09:57:13;;;;;;;10.97;4.87;;;;;;;4.36;86.27;96137.75;5070184;28;20709;-79
2021/11/08 09:59:38;;;;;;;22.17;5.60;;;;;;;4.49;86.42;96143.78;5074612;28;20193;-79
2021/11/08 10:02:12;;;;;;;16.90;4.80;;;;;;;4.63;85.80;96140.34;5077137;28;20798;-79
2021/11/08 10:04:38;;;;;;;10.27;3.87;;;;;;;4.82;85.26;96140.00;5075547;28;20173;-78
2021/11/08 10:07:03;;;;;;;13.60;4.57;;;;;;;4.96;84.56;96139.13;5081200;28;20192;-77
2021/11/08 10:09:28;;;;;;;13.30;4.97;;;;;;;5.10;84.24;96147.59;5063666;28;20679;-77
2021/11/08 10:11:54;;;;;;;12.33;4.73;;;;;;;5.20;83.42;96137.50;5066848;28;20439;-77
2021/11/08 10:14:19;;;;;;;13.07;4.40;;;;;;;5.37;83.10;96124.34;5068870;28;20188;-78
2021/11/08 10:16:47;;;;;;;17.20;4.50;;;;;;;5.52;81.82;96129.41;5088805;28;20195;-78
2021/11/08 10:19:21;;;;;;;26.07;8.23;;;;;;;5.61;81.01;96131.38;5089124;28;20201;-77
2021/11/08 10:21:49;;;;;;;16.70;5.20;;;;;;;5.70;80.85;96130.75;5079830;28;20260;-78
2021/11/08 10:24:19;;;;;;;21.47;6.83;;;;;;;5.68;81.83;96128.28;5056243;28;20284;-79
2021/11/08 10:26:45;;;;;;;19.50;9.70;;;;;;;5.83;81.60;96131.59;5069003;28;20188;-78
2021/11/08 10:29:15;;;;;;;18.23;7.80;;;;;;;5.79;80.83;96124.16;5070343;28;20223;-78
2021/11/08 10:31:47;;;;;;;13.27;4.80;;;;;;;5.81;80.77;96130.84;5071018;28;20177;-78
2021/11/08 10:34:13;;;;;;;11.80;4.77;;;;;;;5.86;79.85;96123.63;5069181;28;20177;-78
2021/11/08 10:36:38;;;;;;;16.73;4.83;;;;;;;5.82;79.62;96122.19;5052266;28;20558;-80
2021/11/08 10:39:06;;;;;;;15.70;5.37;;;;;;;5.85;80.59;96116.84;5059327;28;20236;-78
2021/11/08 10:41:35;;;;;;;12.37;4.47;;;;;;;5.89;80.88;96114.88;5061780;28;20247;-79
2021/11/08 10:44:16;;;;;;;14.23;4.73;;;;;;;6.06;80.55;96116.31;5071564;28;20257;-79
2021/11/08 10:46:57;;;;;;;13.97;4.67;;;;;;;6.17;78.53;96121.53;5070018;28;20201;-81
2021/11/08 10:49:25;;;;;;;14.10;4.30;;;;;;;6.11;78.47;96127.16;5061864;28;20254;-80
2021/11/08 10:51:56;;;;;;;16.87;4.40;;;;;;;6.00;78.14;96125.28;5075735;28;20177;-81
2021/11/08 10:54:28;;;;;;;15.47;4.20;;;;;;;5.80;77.98;96131.78;5075707;28;20238;-81
2021/11/08 10:56:59;;;;;;;15.30;5.20;;;;;;;5.90;77.55;96135.41;5077982;28;20173;-79
2021/11/08 10:59:31;;;;;;;21.50;5.30;;;;;;;5.89;78.00;96135.50;5054250;28;20691;-81
2021/11/08 11:02:07;;;;;;;17.83;5.03;;;;;;;6.15;76.98;96138.88;5070165;28;20180;-83
2021/11/08 11:04:33;;;;;;;10.77;3.73;;;;;;;6.25;76.55;96134.75;5070871;28;20173;-80
2021/11/08 11:06:59;;;;;;;15.93;4.47;;;;;;;6.39;76.26;96129.44;5073704;28;20203;-80
2021/11/08 11:09:27;;;;;;;16.50;4.80;;;;;;;6.56;75.68;96130.84;5057633;28;20569;-78
2021/11/08 11:12:09;;;;;;;14.03;4.73;;;;;;;6.53;75.13;96131.88;5057267;28;20200;-79
2021/11/08 11:14:36;;;;;;;14.47;5.33;;;;;;;6.43;75.48;96133.44;5056968;28;20180;-78
2021/11/08 11:17:07;;;;;;;16.80;5.50;;;;;;;6.23;76.70;96132.28;5074144;28;20211;-77
2021/11/08 11:19:33;;;;;;;15.27;5.60;;;;;;;6.14;76.16;96129.50;5074074;28;20741;-79
2021/11/08 11:22:02;;;;;;;11.37;5.27;;;;;;;6.07;76.64;96136.00;5057585;28;20177;-79
2021/11/08 11:24:47;;;;;;;12.17;4.87;;;;;;;5.93;76.87;96135.22;5075778;28;20286;-79
2021/11/08 11:27:31;;;;;;;14.50;6.63;;;;;;;6.09;77.25;96136.72;5086493;28;20173;-79
2021/11/08 11:30:12;;;;;;;20.60;9.00;;;;;;;6.20;76.47;96136.81;5095181;28;20242;-79
2021/11/08 11:32:38;;;;;;;15.97;4.97;;;;;;;6.36;75.79;96126.25;5068300;28;20709;-79
2021/11/08 11:35:11;;;;;;;16.13;4.70;;;;;;;6.60;75.74;96126.28;5057161;28;20181;-78
2021/11/08 11:37:37;;;;;;;14.63;4.70;;;;;;;6.53;76.01;96120.72;5072998;28;20280;-79
2021/11/08 11:40:12;;;;;;;13.50;5.03;;;;;;;6.69;75.61;96113.53;5074059;28;20221;-79
2021/11/08 11:42:51;;;;;;;13.13;4.13;;;;;;;6.71;76.51;96113.41;5088720;28;20171;-80
2021/11/08 11:45:17;;;;;;;11.03;3.93;;;;;;;6.68;75.62;96111.88;5078594;28;20302;-78
2021/11/08 11:47:44;;;;;;;12.53;4.13;;;;;;;6.77;75.42;96110.41;5064134;28;20173;-78
2021/11/08 11:50:11;;;;;;;9.90;4.13;;;;;;;6.70;73.83;96109.19;5058884;28;20203;-79
2021/11/08 11:52:43;;;;;;;15.33;3.93;;;;;;;6.93;73.35;96105.78;5094927;28;20924;-79
2021/11/08 11:55:09;;;;;;;15.77;4.13;;;;;;;7.11;71.62;96111.38;5069265;28;20184;-79
2021/11/08 11:57:35;;;;;;;13.37;3.57;;;;;;;7.13;72.89;96104.31;5065117;28;20230;-79
2021/11/08 12:00:03;;;;;;;12.50;3.70;;;;;;;7.19;72.21;96105.63;5082392;28;20188;-79
2021/11/08 12:02:28;;;;;;;13.93;3.60;;;;;;;7.26;72.24;96104.25;5091393;28;20180;-79
2021/11/08 12:04:54;;;;;;;14.53;3.60;;;;;;;6.80;73.33;96105.88;5075346;28;20180;-78
2021/11/08 12:07:19;;;;;;;13.23;3.40;;;;;;;6.97;72.10;96104.63;5068987;28;20192;-78
2021/11/08 12:09:45;;;;;;;14.10;4.47;;;;;;;6.47;73.64;96097.94;5081003;28;20260;-78
2021/11/08 12:12:23;;;;;;;14.30;3.83;;;;;;;6.55;73.63;96102.56;5084815;28;20181;-77
2021/11/08 12:15:09;;;;;;;12.37;3.83;;;;;;;6.39;74.29;96108.81;5062060;28;20695;-78
2021/11/08 12:17:43;;;;;;;9.27;3.23;;;;;;;6.18;73.67;96103.41;5067285;28;20249;-79
2021/11/08 12:20:15;;;;;;;15.10;3.83;;;;;;;6.06;75.03;96098.28;5082748;28;20273;-78
2021/11/08 12:22:41;;;;;;;12.23;3.90;;;;;;;6.17;74.25;96108.66;5085882;28;20212;-78
2021/11/08 12:25:09;;;;;;;15.37;3.93;;;;;;;6.20;74.36;96103.31;5082479;28;21091;-78
2021/11/08 12:27:47;;;;;;;15.50;4.50;;;;;;;6.15;74.29;96107.94;5077984;28;20177;-78
2021/11/08 12:30:14;;;;;;;11.87;3.93;;;;;;;6.22;74.48;96107.41;5055256;28;20204;-78
2021/11/08 12:32:44;;;;;;;11.23;3.10;;;;;;;6.22;74.58;96109.16;5055960;28;20242;-78
2021/11/08 12:35:25;;;;;;;12.23;4.30;;;;;;;6.29;75.16;96110.41;5070395;28;20189;-79
2021/11/08 12:37:51;;;;;;;15.23;4.07;;;;;;;6.26;74.82;96105.44;5057029;28;20239;-79
2021/11/08 12:40:19;;;;;;;13.07;4.00;;;;;;;6.35;73.91;96109.13;5071435;28;20228;-78
2021/11/08 12:42:47;;;;;;;11.40;6.20;;;;;;;6.44;73.56;96106.72;5084872;28;20176;-78
2021/11/08 12:45:16;;;;;;;15.80;6.53;;;;;;;6.40;74.08;96113.03;5074281;28;20192;-79
2021/11/08 12:47:42;;;;;;;12.83;4.93;;;;;;;6.53;73.60;96110.41;5070301;28;20177;-78
2021/11/08 12:50:10;;;;;;;13.27;5.10;;;;;;;6.45;73.75;96110.97;5076507;28;20231;-78
2021/11/08 12:52:39;;;;;;;12.90;4.40;;;;;;;6.55;73.27;96105.16;5084569;28;20659;-79
2021/11/08 12:55:12;;;;;;;13.33;5.23;;;;;;;6.56;73.69;96106.78;5074405;28;20238;-79
2021/11/08 12:57:40;;;;;;;13.40;4.10;;;;;;;6.52;73.89;96103.59;5082852;28;20583;-78
2021/11/08 13:00:19;;;;;;;11.83;3.97;;;;;;;6.55;73.91;96094.84;5070735;28;20237;-78
2021/11/08 13:02:54;;;;;;;11.57;3.37;;;;;;;6.47;74.10;96093.63;5085447;28;20659;-79
2021/11/08 13:05:28;;;;;;;11.50;3.93;;;;;;;6.40;72.91;96087.22;5059136;28;20215;-80
2021/11/08 13:07:55;;;;;;;10.60;3.13;;;;;;;6.50;72.38;96098.53;5070371;28;20172;-78
2021/11/08 13:10:29;;;;;;;14.73;3.50;;;;;;;6.60;71.86;96095.31;5070972;28;20205;-78
2021/11/08 13:12:55;;;;;;;11.33;2.90;;;;;;;6.85;71.45;96096.94;5087352;28;20237;-79